createdAt,value
2022-08-17T00:00:44.062Z,101020.56
2022-08-17T00:03:15.097Z,101019.84
2022-08-17T00:05:48.040Z,101047.16
2022-08-17T00:08:24.993Z,101025.31
2022-08-17T00:10:55.913Z,101025.50
2022-08-17T00:13:29.472Z,101039.25
2022-08-17T00:16:00.815Z,101031.81
2022-08-17T00:19:01.196Z,101023.75
2022-08-17T00:21:25.329Z,100992.03
2022-08-17T00:23:55.990Z,100998.13
2022-08-17T00:26:43.631Z,100995.25
2022-08-17T00:29:19.651Z,101008.69
2022-08-17T00:31:48.983Z,100989.31
2022-08-17T00:34:17.628Z,100991.66
2022-08-17T00:36:46.539Z,101010.00
2022-08-17T00:39:16.166Z,100981.09
2022-08-17T00:41:44.894Z,100995.88
2022-08-17T00:44:13.219Z,101004.00
2022-08-17T00:46:45.288Z,101014.25
2022-08-17T00:49:14.813Z,100985.28
2022-08-17T00:51:49.076Z,100965.63
2022-08-17T00:54:24.995Z,100991.06
2022-08-17T00:56:57.839Z,100992.28
2022-08-17T00:59:30.913Z,101000.91
2022-08-17T01:02:00.316Z,101005.47
2022-08-17T01:04:32.437Z,100987.81
2022-08-17T01:07:04.712Z,101005.50
2022-08-17T01:09:34.937Z,101008.97
2022-08-17T01:12:06.572Z,100996.72
2022-08-17T01:14:37.782Z,100999.06
2022-08-17T01:17:06.843Z,100983.59
2022-08-17T01:19:39.263Z,100975.38
2022-08-17T01:22:21.699Z,100996.72
2022-08-17T01:24:57.246Z,100987.97
2022-08-17T01:27:26.728Z,100999.22
2022-08-17T01:30:02.159Z,100997.47
2022-08-17T01:32:31.481Z,101000.22
2022-08-17T01:35:01.803Z,100984.38
2022-08-17T01:37:35.317Z,101006.19
2022-08-17T01:40:12.721Z,101015.03
2022-08-17T01:42:47.729Z,101010.59
2022-08-17T01:45:20.209Z,101020.94
2022-08-17T01:47:48.588Z,101043.47
2022-08-17T01:50:24.654Z,101021.94
2022-08-17T01:53:00.652Z,101008.00
2022-08-17T01:55:38.093Z,101001.47
2022-08-17T01:58:09.874Z,101016.97
2022-08-17T02:01:00.225Z,101016.75
2022-08-17T02:03:27.805Z,100989.09
2022-08-17T02:05:56.558Z,100985.53
2022-08-17T02:08:38.749Z,100986.34
2022-08-17T02:11:12.035Z,101011.75
2022-08-17T02:13:40.693Z,100990.03
2022-08-17T02:16:09.104Z,100991.81
2022-08-17T02:18:37.459Z,101004.06
2022-08-17T02:21:07.278Z,100990.22
2022-08-17T02:23:42.922Z,100998.09
2022-08-17T02:26:24.241Z,100984.00
2022-08-17T02:28:55.045Z,100991.69
2022-08-17T02:31:23.484Z,100997.09
2022-08-17T02:34:03.487Z,101020.53
2022-08-17T02:36:34.717Z,101016.81
2022-08-17T02:39:07.086Z,100999.28
2022-08-17T02:41:36.574Z,101028.56
2022-08-17T02:44:06.696Z,101032.13
2022-08-17T02:46:35.206Z,101021.63
2022-08-17T02:49:03.859Z,101060.13
2022-08-17T02:51:32.985Z,101038.72
2022-08-17T02:54:38.930Z,101041.22
2022-08-17T02:56:51.437Z,101036.91
2022-08-17T02:59:19.924Z,101076.31
2022-08-17T03:01:48.317Z,101087.28
2022-08-17T03:04:17.006Z,101090.75
2022-08-17T03:06:46.166Z,101092.91
2022-08-17T03:09:16.446Z,101046.41
2022-08-17T03:11:45.452Z,101092.72
2022-08-17T03:14:15.701Z,101098.88
2022-08-17T03:16:44.028Z,101078.75
2022-08-17T03:19:12.918Z,101104.25
2022-08-17T03:21:41.333Z,101079.03
2022-08-17T03:24:09.902Z,101107.03
2022-08-17T03:26:38.847Z,101074.75
2022-08-17T03:29:07.252Z,101093.53
2022-08-17T03:31:37.282Z,101084.94
2022-08-17T03:34:05.982Z,101076.91
2022-08-17T03:36:36.125Z,101069.38
2022-08-17T03:39:05.563Z,101088.47
2022-08-17T03:41:33.963Z,101089.09
2022-08-17T03:44:03.932Z,101048.00
2022-08-17T03:46:49.470Z,101067.41
2022-08-17T03:49:36.945Z,101053.19
2022-08-17T03:52:23.362Z,101076.84
2022-08-17T03:55:09.226Z,101075.16
2022-08-17T03:57:37.778Z,101076.06
2022-08-17T04:00:07.944Z,101042.50
2022-08-17T04:02:40.588Z,101077.59
2022-08-17T04:05:10.887Z,101072.22
2022-08-17T04:07:39.188Z,101040.75
2022-08-17T04:10:09.022Z,101081.06
2022-08-17T04:12:46.399Z,101089.88
2022-08-17T04:15:15.334Z,101074.59
2022-08-17T04:17:45.120Z,101082.31
2022-08-17T04:20:19.269Z,101085.53
2022-08-17T04:22:59.591Z,101034.59
2022-08-17T04:25:29.133Z,101095.41
2022-08-17T04:27:58.511Z,101073.56
2022-08-17T04:30:28.683Z,101065.28
2022-08-17T04:33:06.389Z,101062.97
2022-08-17T04:35:41.199Z,101073.41
2022-08-17T04:38:20.737Z,101070.28
2022-08-17T04:41:07.778Z,101074.25
2022-08-17T04:43:37.412Z,101072.34
2022-08-17T04:46:09.278Z,101061.69
2022-08-17T04:48:40.801Z,101069.56
2022-08-17T04:51:15.745Z,101063.25
2022-08-17T04:53:53.981Z,101062.53
2022-08-17T04:56:26.086Z,101064.25
2022-08-17T04:58:57.960Z,101062.19
2022-08-17T05:01:29.195Z,101105.28
2022-08-17T05:04:25.148Z,101117.53
2022-08-17T05:06:54.597Z,101109.41
2022-08-17T05:09:23.208Z,101102.34
2022-08-17T05:11:52.784Z,101083.59
2022-08-17T05:14:33.046Z,101114.28
2022-08-17T05:17:07.332Z,101085.44
2022-08-17T05:19:39.424Z,101119.03
2022-08-17T05:22:09.403Z,101111.47
2022-08-17T05:24:42.518Z,101134.88
2022-08-17T05:27:16.784Z,101105.69
2022-08-17T05:29:47.670Z,101132.59
2022-08-17T05:32:39.173Z,101104.22
2022-08-17T05:35:05.144Z,101106.66
2022-08-17T05:37:34.805Z,101110.84
2022-08-17T05:40:03.382Z,101084.41
2022-08-17T05:42:31.723Z,101110.41
2022-08-17T05:45:00.017Z,101094.41
2022-08-17T05:47:29.461Z,101089.06
2022-08-17T05:49:58.697Z,101091.13
2022-08-17T05:52:38.983Z,101065.34
2022-08-17T05:55:19.442Z,101092.69
2022-08-17T05:58:05.080Z,101094.53
2022-08-17T06:00:44.773Z,101099.75
2022-08-17T06:03:30.202Z,101093.34
2022-08-17T06:06:15.693Z,101100.50
2022-08-17T06:08:52.512Z,101089.31
2022-08-17T06:11:29.637Z,101095.19
2022-08-17T06:14:17.417Z,101088.91
2022-08-17T06:16:52.175Z,101100.16
2022-08-17T06:19:28.859Z,101106.22
2022-08-17T06:21:57.695Z,101111.84
2022-08-17T06:24:34.262Z,101083.28
2022-08-17T06:27:13.048Z,101106.63
2022-08-17T06:29:51.792Z,101102.94
2022-08-17T06:32:20.446Z,101082.22
2022-08-17T06:34:48.997Z,101075.19
2022-08-17T06:37:57.169Z,101102.47
2022-08-17T06:40:56.311Z,101097.59
2022-08-17T06:43:48.188Z,101108.53
2022-08-17T06:46:26.062Z,101116.22
2022-08-17T06:49:10.482Z,101124.13
2022-08-17T06:51:43.436Z,101129.50
2022-08-17T06:54:19.130Z,101125.28
2022-08-17T06:56:55.800Z,101112.03
2022-08-17T06:59:54.878Z,101111.91
2022-08-17T07:02:29.399Z,101124.19
2022-08-17T07:05:21.180Z,101129.88
2022-08-17T07:08:05.063Z,101150.47
2022-08-17T07:10:42.636Z,101142.88
2022-08-17T07:13:32.580Z,101152.03
2022-08-17T07:16:14.778Z,101102.97
2022-08-17T07:18:46.072Z,101162.16
2022-08-17T07:21:38.652Z,101158.41
2022-08-17T07:24:31.020Z,101168.88
2022-08-17T07:27:14.218Z,101159.56
2022-08-17T07:29:54.717Z,101153.31
2022-08-17T07:32:29.586Z,101168.41
2022-08-17T07:35:15.599Z,101141.94
2022-08-17T07:37:53.194Z,101166.41
2022-08-17T07:40:35.215Z,101152.72
2022-08-17T07:43:21.998Z,101166.94
2022-08-17T07:46:37.206Z,101153.06
2022-08-17T07:49:23.750Z,101150.88
2022-08-17T07:52:24.212Z,101135.63
2022-08-17T07:54:54.515Z,101171.84
2022-08-17T07:57:36.383Z,101144.03
2022-08-17T08:00:31.861Z,101157.38
2022-08-17T08:03:23.719Z,101155.03
2022-08-17T08:06:02.110Z,101175.59
2022-08-17T08:08:38.567Z,101191.28
2022-08-17T08:11:11.517Z,101173.59
2022-08-17T08:13:45.377Z,101185.97
2022-08-17T08:16:29.306Z,101184.78
2022-08-17T08:19:02.771Z,101172.50
2022-08-17T08:21:46.430Z,101189.06
2022-08-17T08:24:42.130Z,101191.38
2022-08-17T08:27:23.466Z,101176.28
2022-08-17T08:29:58.246Z,101199.75
2022-08-17T08:32:45.505Z,101194.41
2022-08-17T08:35:26.860Z,101194.47
2022-08-17T08:38:04.058Z,101169.91
2022-08-17T08:41:17.442Z,101182.13
2022-08-17T08:44:00.906Z,101189.22
2022-08-17T08:46:37.696Z,101171.47
2022-08-17T08:50:03.460Z,101187.16
2022-08-17T08:53:15.459Z,101178.50
2022-08-17T08:55:55.075Z,101162.38
2022-08-17T08:58:41.790Z,101155.16
2022-08-17T09:01:21.995Z,101158.59
2022-08-17T09:04:25.560Z,101146.91
2022-08-17T09:07:07.842Z,101147.34
2022-08-17T09:09:55.140Z,101144.53
2022-08-17T09:12:36.439Z,101130.09
2022-08-17T09:15:14.573Z,101132.19
2022-08-17T09:18:08.643Z,101130.31
2022-08-17T09:20:50.656Z,101142.16
2022-08-17T09:23:32.533Z,101147.19
2022-08-17T09:26:10.545Z,101133.13
2022-08-17T09:28:41.332Z,101128.47
2022-08-17T09:31:12.820Z,101156.44
2022-08-17T09:33:48.207Z,101129.94
2022-08-17T09:36:24.265Z,101161.38
2022-08-17T09:39:03.355Z,101177.53
2022-08-17T09:41:49.043Z,101176.94
2022-08-17T09:44:32.409Z,101193.38
2022-08-17T09:47:10.021Z,101177.88
2022-08-17T09:49:47.140Z,101191.19
2022-08-17T09:52:22.316Z,101175.41
2022-08-17T09:54:53.526Z,101187.81
2022-08-17T09:57:38.102Z,101187.72
2022-08-17T10:00:23.753Z,101190.72
2022-08-17T10:03:21.828Z,101213.09
2022-08-17T10:05:57.226Z,101220.56
2022-08-17T10:08:36.666Z,101223.47
2022-08-17T10:11:33.328Z,101201.91
2022-08-17T10:14:37.305Z,101213.25
2022-08-17T10:17:13.523Z,101217.00
2022-08-17T10:19:54.854Z,101208.44
2022-08-17T10:22:53.059Z,101209.31
2022-08-17T10:25:53.994Z,101215.41
2022-08-17T10:28:30.311Z,101233.56
2022-08-17T10:34:46.740Z,101240.75
2022-08-17T10:37:54.805Z,101261.38
2022-08-17T10:40:35.897Z,101253.88
2022-08-17T10:43:22.817Z,101270.28
2022-08-17T10:46:09.509Z,101269.19
2022-08-17T10:49:26.842Z,101278.50
2022-08-17T10:51:57.782Z,101281.13
2022-08-17T10:54:42.533Z,101253.84
2022-08-17T10:57:42.461Z,101255.47
2022-08-17T11:01:11.474Z,101296.50
2022-08-17T11:03:54.065Z,101297.63
2022-08-17T11:06:42.575Z,101295.31
2022-08-17T11:09:30.563Z,101313.63
2022-08-17T11:12:20.350Z,101309.59
2022-08-17T11:15:23.022Z,101299.78
2022-08-17T11:18:22.837Z,101299.72
2022-08-17T11:21:20.253Z,101239.22
2022-08-17T11:24:17.872Z,101295.09
2022-08-17T11:27:13.568Z,101300.25
2022-08-17T11:29:58.104Z,101297.03
2022-08-17T11:32:38.300Z,101232.78
2022-08-17T11:35:36.987Z,101272.31
2022-08-17T11:38:25.313Z,101270.84
2022-08-17T11:41:27.455Z,101289.22
2022-08-17T11:44:10.506Z,101300.06
2022-08-17T11:47:22.104Z,101283.63
2022-08-17T11:50:31.790Z,101247.50
2022-08-17T11:53:00.617Z,101247.75
2022-08-17T11:56:04.808Z,101232.13
2022-08-17T11:58:42.254Z,101246.13
2022-08-17T12:01:13.839Z,101240.84
2022-08-17T12:03:56.766Z,101279.28
2022-08-17T12:06:54.857Z,101269.03
2022-08-17T12:09:27.001Z,101269.53
2022-08-17T12:12:13.071Z,101277.56
2022-08-17T12:17:40.139Z,101307.28
2022-08-17T12:20:16.300Z,101289.75
2022-08-17T12:22:56.575Z,101243.84
2022-08-17T12:25:33.965Z,101246.13
2022-08-17T12:28:06.523Z,101324.63
2022-08-17T12:30:38.691Z,101288.00
2022-08-17T12:33:25.789Z,101282.34
2022-08-17T12:36:03.911Z,101272.84
2022-08-17T12:38:36.117Z,101278.31
2022-08-17T12:41:21.596Z,101324.63
2022-08-17T12:44:01.852Z,101316.00
2022-08-17T12:46:35.943Z,101277.91
2022-08-17T12:49:18.185Z,101270.94
2022-08-17T12:51:48.953Z,101327.72
2022-08-17T12:54:33.645Z,101283.22
2022-08-17T12:57:12.599Z,101323.16
2022-08-17T12:59:46.521Z,101295.00
2022-08-17T13:02:40.197Z,101312.25
2022-08-17T13:05:21.278Z,101285.00
2022-08-17T13:07:50.728Z,101283.97
2022-08-17T13:10:32.172Z,101327.09
2022-08-17T13:13:05.361Z,101268.44
2022-08-17T13:15:44.356Z,101308.00
2022-08-17T13:18:40.097Z,101292.19
2022-08-17T13:21:23.361Z,101288.06
2022-08-17T13:24:04.764Z,101330.22
2022-08-17T13:26:39.146Z,101328.47
2022-08-17T13:29:18.451Z,101249.59
2022-08-17T13:31:51.868Z,101312.94
2022-08-17T13:35:01.652Z,101246.38
2022-08-17T13:37:33.600Z,101276.56
2022-08-17T13:40:27.988Z,101304.84
2022-08-17T13:42:57.632Z,101310.91
2022-08-17T13:45:50.433Z,101307.03
2022-08-17T13:48:29.231Z,101268.41
2022-08-17T13:51:33.458Z,101251.72
2022-08-17T13:54:19.715Z,101281.09
2022-08-17T13:57:02.171Z,101285.13
2022-08-17T13:59:54.318Z,101305.09
2022-08-17T14:02:25.889Z,101255.59
2022-08-17T14:04:57.312Z,101254.28
2022-08-17T14:07:41.690Z,101285.31
2022-08-17T14:10:15.049Z,101257.84
2022-08-17T14:12:46.594Z,101285.50
2022-08-17T14:15:20.517Z,101248.00
2022-08-17T14:17:50.172Z,101252.69
2022-08-17T14:20:22.898Z,101240.34
2022-08-17T14:22:55.714Z,101239.56
2022-08-17T14:25:26.949Z,101276.03
2022-08-17T14:27:56.641Z,101248.84
2022-08-17T14:30:28.939Z,101240.03
2022-08-17T14:33:02.056Z,101236.19
2022-08-17T14:35:30.804Z,101255.19
2022-08-17T14:38:02.108Z,101248.63
2022-08-17T14:40:30.391Z,101239.44
2022-08-17T14:42:59.278Z,101229.69
2022-08-17T14:45:32.119Z,101252.41
2022-08-17T14:48:05.719Z,101229.22
2022-08-17T14:50:36.102Z,101249.13
2022-08-17T14:53:08.536Z,101245.34
2022-08-17T14:55:39.957Z,101223.72
2022-08-17T14:58:08.797Z,101240.97
2022-08-17T15:00:37.509Z,101232.75
2022-08-17T15:03:06.582Z,101210.63
2022-08-17T15:05:37.411Z,101230.50
2022-08-17T15:08:08.055Z,101232.97
2022-08-17T15:10:37.718Z,101200.47
2022-08-17T15:13:11.495Z,101240.56
2022-08-17T15:15:40.528Z,101249.50
2022-08-17T15:18:08.766Z,101237.44
2022-08-17T15:20:37.074Z,101249.03
2022-08-17T15:23:07.147Z,101201.06
2022-08-17T15:25:36.673Z,101243.50
2022-08-17T15:28:05.568Z,101259.06
2022-08-17T15:30:35.211Z,101237.28
2022-08-17T15:33:04.381Z,101249.91
2022-08-17T15:35:34.855Z,101262.88
2022-08-17T15:38:12.402Z,101219.13
2022-08-17T15:40:45.518Z,101250.63
2022-08-17T15:43:19.282Z,101265.06
2022-08-17T15:45:54.841Z,101238.44
2022-08-17T15:48:40.778Z,101259.47
2022-08-17T15:51:11.951Z,101260.91
2022-08-17T15:53:43.936Z,101274.84
2022-08-17T15:56:13.670Z,101274.72
2022-08-17T15:58:44.103Z,101256.03
2022-08-17T16:01:18.603Z,101229.53
2022-08-17T16:04:06.647Z,101242.25
2022-08-17T16:06:35.818Z,101260.50
2022-08-17T16:09:05.688Z,101257.28
2022-08-17T16:11:34.049Z,101219.88
2022-08-17T16:14:02.826Z,101236.16
2022-08-17T16:16:31.272Z,101252.72
2022-08-17T16:18:59.669Z,101249.03
2022-08-17T16:21:29.744Z,101253.63
2022-08-17T16:24:04.073Z,101212.25
2022-08-17T16:26:36.553Z,101198.25
2022-08-17T16:29:07.677Z,101243.59
2022-08-17T16:31:37.649Z,101206.25
2022-08-17T16:34:17.135Z,101191.94
2022-08-17T16:36:55.506Z,101246.91
2022-08-17T16:39:27.487Z,101230.00
2022-08-17T16:41:58.524Z,101233.94
2022-08-17T16:44:31.637Z,101230.13
2022-08-17T16:47:01.660Z,101250.94
2022-08-17T16:49:37.009Z,101258.72
2022-08-17T16:52:11.040Z,101248.63
2022-08-17T16:54:44.218Z,101211.13
2022-08-17T16:57:15.612Z,101256.25
2022-08-17T16:59:48.128Z,101236.69
2022-08-17T17:02:25.096Z,101271.09
2022-08-17T17:05:02.646Z,101229.09
2022-08-17T17:08:04.889Z,101287.66
2022-08-17T17:10:40.627Z,101245.84
2022-08-17T17:13:17.856Z,101256.19
2022-08-17T17:15:59.274Z,101299.06
2022-08-17T17:18:40.306Z,101279.38
2022-08-17T17:21:15.258Z,101285.03
2022-08-17T17:23:56.402Z,101299.56
2022-08-17T17:27:07.373Z,101322.53
2022-08-17T17:29:49.330Z,101318.78
2022-08-17T17:32:25.709Z,101325.41
2022-08-17T17:35:02.867Z,101326.34
2022-08-17T17:37:36.382Z,101284.03
2022-08-17T17:40:14.473Z,101300.50
2022-08-17T17:42:48.369Z,101311.00
2022-08-17T17:45:23.635Z,101324.28
2022-08-17T17:47:52.686Z,101277.16
2022-08-17T17:50:26.941Z,101326.69
2022-08-17T17:53:03.244Z,101326.13
2022-08-17T17:55:48.757Z,101332.09
2022-08-17T17:58:37.136Z,101309.50
2022-08-17T18:01:28.754Z,101345.41
2022-08-17T18:04:21.655Z,101344.97
2022-08-17T18:07:10.483Z,101311.75
2022-08-17T18:10:04.622Z,101311.44
2022-08-17T18:12:57.810Z,101336.41
2022-08-17T18:15:34.025Z,101294.88
2022-08-17T18:18:39.452Z,101330.00
2022-08-17T18:21:19.327Z,101326.50
2022-08-17T18:23:56.303Z,101307.44
2022-08-17T18:26:55.192Z,101313.59
2022-08-17T18:29:45.502Z,101346.88
2022-08-17T18:32:34.724Z,101343.31
2022-08-17T18:35:35.110Z,101309.78
2022-08-17T18:38:23.474Z,101335.72
2022-08-17T18:41:03.396Z,101298.00
2022-08-17T18:43:44.479Z,101347.63
2022-08-17T18:46:32.460Z,101293.38
2022-08-17T18:49:03.168Z,101315.22
2022-08-17T18:51:41.520Z,101348.31
2022-08-17T18:54:21.366Z,101347.50
2022-08-17T18:56:56.112Z,101323.28
2022-08-17T18:59:32.195Z,101319.88
2022-08-17T19:02:44.712Z,101331.53
2022-08-17T19:05:27.529Z,101347.69
2022-08-17T19:08:22.463Z,101371.41
2022-08-17T19:10:55.632Z,101345.22
2022-08-17T19:13:32.983Z,101363.69
2022-08-17T19:16:14.387Z,101397.44
2022-08-17T19:18:53.206Z,101390.63
2022-08-17T19:21:26.608Z,101388.16
2022-08-17T19:24:06.181Z,101395.06
2022-08-17T19:26:51.191Z,101411.72
2022-08-17T19:29:34.355Z,101416.16
2022-08-17T19:32:04.789Z,101409.50
2022-08-17T19:34:36.843Z,101367.34
2022-08-17T19:37:13.693Z,101340.31
2022-08-17T19:39:55.540Z,101405.31
2022-08-17T19:42:40.554Z,101382.44
2022-08-17T19:45:16.855Z,101383.06
2022-08-17T19:47:55.933Z,101376.91
2022-08-17T19:50:39.083Z,101389.28
2022-08-17T19:53:20.334Z,101395.22
2022-08-17T19:56:01.120Z,101421.38
2022-08-17T19:58:48.187Z,101427.50
2022-08-17T20:01:25.019Z,101411.84
2022-08-17T20:04:04.391Z,101381.03
2022-08-17T20:06:38.305Z,101425.78
2022-08-17T20:09:17.512Z,101417.75
2022-08-17T20:11:56.176Z,101406.34
2022-08-17T20:14:41.713Z,101430.94
2022-08-17T20:17:23.465Z,101433.84
2022-08-17T20:20:01.833Z,101434.41
2022-08-17T20:22:36.792Z,101402.13
2022-08-17T20:25:30.488Z,101446.09
2022-08-17T20:28:18.710Z,101436.19
2022-08-17T20:30:47.425Z,101404.00
2022-08-17T20:33:29.649Z,101424.38
2022-08-17T20:36:19.102Z,101413.28
2022-08-17T20:38:50.614Z,101415.06
2022-08-17T20:41:22.516Z,101396.19
2022-08-17T20:44:05.256Z,101391.72
2022-08-17T20:46:58.680Z,101437.41
2022-08-17T20:49:47.193Z,101402.31
2022-08-17T20:52:38.472Z,101412.38
2022-08-17T20:55:08.075Z,101397.75
2022-08-17T20:57:50.544Z,101368.69
2022-08-17T21:00:46.363Z,101380.22
2022-08-17T21:03:50.672Z,101416.53
2022-08-17T21:06:24.123Z,101421.00
2022-08-17T21:08:59.902Z,101417.44
2022-08-17T21:12:03.876Z,101417.47
2022-08-17T21:14:56.400Z,101404.88
2022-08-17T21:17:47.619Z,101410.22
2022-08-17T21:20:32.479Z,101395.38
2022-08-17T21:23:40.604Z,101417.19
2022-08-17T21:26:25.544Z,101400.44
2022-08-17T21:29:29.659Z,101428.66
2022-08-17T21:32:24.273Z,101424.03
2022-08-17T21:35:29.165Z,101383.31
2022-08-17T21:38:05.112Z,101404.41
2022-08-17T21:40:36.348Z,101398.13
2022-08-17T21:43:23.815Z,101422.00
2022-08-17T21:46:05.408Z,101401.03
2022-08-17T21:48:43.971Z,101406.53
2022-08-17T21:51:20.764Z,101389.72
2022-08-17T21:53:52.964Z,101431.78
2022-08-17T21:56:26.414Z,101439.72
2022-08-17T21:59:00.577Z,101398.63
2022-08-17T22:01:34.742Z,101396.22
2022-08-17T22:04:19.429Z,101448.00
2022-08-17T22:06:57.583Z,101399.97
2022-08-17T22:09:30.028Z,101457.13
2022-08-17T22:12:06.041Z,101433.66
2022-08-17T22:14:53.370Z,101420.47
2022-08-17T22:17:25.143Z,101467.09
2022-08-17T22:19:59.704Z,101438.19
2022-08-17T22:22:58.871Z,101453.00
2022-08-17T22:25:29.569Z,101479.50
2022-08-17T22:28:01.437Z,101457.47
2022-08-17T22:30:59.406Z,101454.75
2022-08-17T22:33:39.666Z,101428.41
2022-08-17T22:36:29.923Z,101430.22
2022-08-17T22:39:45.496Z,101225.94
2022-08-17T22:42:15.706Z,101414.72
2022-08-17T22:44:50.263Z,101463.09
2022-08-17T22:47:38.695Z,101445.53
2022-08-17T22:50:22.408Z,101456.97
2022-08-17T22:53:16.789Z,101464.09
2022-08-17T22:56:13.551Z,101453.63
2022-08-17T22:59:08.458Z,101475.47
2022-08-17T23:01:36.977Z,101425.38
2022-08-17T23:04:08.874Z,101465.84
2022-08-17T23:06:42.378Z,101456.81
2022-08-17T23:09:10.934Z,101451.59
2022-08-17T23:11:49.801Z,101442.88
2022-08-17T23:14:20.960Z,101463.06
2022-08-17T23:16:50.171Z,101444.63
2022-08-17T23:19:21.732Z,101461.16
2022-08-17T23:21:54.428Z,101483.09
2022-08-17T23:24:26.418Z,101484.78
2022-08-17T23:26:58.133Z,101489.25
2022-08-17T23:29:29.115Z,101433.97
2022-08-17T23:32:01.735Z,101451.41
2022-08-17T23:34:30.299Z,101447.03
2022-08-17T23:37:02.303Z,101425.25
2022-08-17T23:39:30.937Z,101464.69
2022-08-17T23:42:07.922Z,101465.59
2022-08-17T23:44:37.392Z,101402.34
2022-08-17T23:47:07.822Z,101436.81
2022-08-17T23:49:37.489Z,101466.88
2022-08-17T23:52:09.877Z,101480.75
2022-08-17T23:54:45.068Z,101483.41
2022-08-17T23:57:18.408Z,101457.84
2022-08-17T23:59:47.149Z,101208.47
